sensor_id;sensor_type;location;lat;lon;timestamp;temperature;humidity
13354;DHT22;6746;50.892;4.064;2024-01-15T00:02:00;2.20;99.90
13354;DHT22;6746;50.892;4.064;2024-01-15T00:04:39;2.20;99.90
13354;DHT22;6746;50.892;4.064;2024-01-15T00:07:19;2.30;99.90
13354;DHT22;6746;50.892;4.064;2024-01-15T00:09:58;2.30;99.90
13354;DHT22;6746;50.892;4.064;2024-01-15T00:12:45;2.30;99.90
13354;DHT22;6746;50.892;4.064;2024-01-15T00:15:33;2.30;99.90
13354;DHT22;6746;50.892;4.064;2024-01-15T00:18:11;2.30;99.90
13354;DHT22;6746;50.892;4.064;2024-01-15T00:20:50;2.30;99.90
13354;DHT22;6746;50.892;4.064;2024-01-15T00:23:30;2.30;99.90
13354;DHT22;6746;50.892;4.064;2024-01-15T00:26:09;2.30;99.90
13354;DHT22;6746;50.892;4.064;2024-01-15T00:28:50;2.40;99.90
13354;DHT22;6746;50.892;4.064;2024-01-15T00:31:28;2.40;99.90
13354;DHT22;6746;50.892;4.064;2024-01-15T00:34:14;2.40;99.90
13354;DHT22;6746;50.892;4.064;2024-01-15T00:36:52;2.40;99.90
13354;DHT22;6746;50.892;4.064;2024-01-15T00:39:33;2.40;99.90
13354;DHT22;6746;50.892;4.064;2024-01-15T00:42:11;2.50;99.90
13354;DHT22;6746;50.892;4.064;2024-01-15T00:44:59;2.50;99.90
13354;DHT22;6746;50.892;4.064;2024-01-15T00:47:37;2.60;99.90
13354;DHT22;6746;50.892;4.064;2024-01-15T00:50:16;2.70;99.90
13354;DHT22;6746;50.892;4.064;2024-01-15T00:52:54;2.70;99.90
13354;DHT22;6746;50.892;4.064;2024-01-15T00:55:32;2.70;99.90
13354;DHT22;6746;50.892;4.064;2024-01-15T00:58:19;2.80;99.90
13354;DHT22;6746;50.892;4.064;2024-01-15T01:00:57;2.80;99.90
13354;DHT22;6746;50.892;4.064;2024-01-15T01:03:38;2.90;99.90
13354;DHT22;6746;50.892;4.064;2024-01-15T01:06:16;2.90;99.90
13354;DHT22;6746;50.892;4.064;2024-01-15T01:08:54;2.90;99.90
13354;DHT22;6746;50.892;4.064;2024-01-15T01:11:33;2.90;99.90
13354;DHT22;6746;50.892;4.064;2024-01-15T01:14:19;2.90;99.90
13354;DHT22;6746;50.892;4.064;2024-01-15T01:16:57;2.90;99.90
13354;DHT22;6746;50.892;4.064;2024-01-15T01:19:45;2.90;99.90
13354;DHT22;6746;50.892;4.064;2024-01-15T01:22:26;2.90;99.90
13354;DHT22;6746;50.892;4.064;2024-01-15T01:25:05;2.90;99.90
13354;DHT22;6746;50.892;4.064;2024-01-15T01:27:53;2.90;99.90
13354;DHT22;6746;50.892;4.064;2024-01-15T01:30:41;2.80;99.90
13354;DHT22;6746;50.892;4.064;2024-01-15T01:33:29;2.80;99.90
13354;DHT22;6746;50.892;4.064;2024-01-15T01:36:17;2.80;99.90
13354;DHT22;6746;50.892;4.064;2024-01-15T01:39:05;2.70;99.90
13354;DHT22;6746;50.892;4.064;2024-01-15T01:41:54;2.70;99.90
13354;DHT22;6746;50.892;4.064;2024-01-15T01:44:42;2.60;99.90
13354;DHT22;6746;50.892;4.064;2024-01-15T01:47:28;2.60;99.90
13354;DHT22;6746;50.892;4.064;2024-01-15T01:50:07;2.60;99.90
13354;DHT22;6746;50.892;4.064;2024-01-15T01:52:55;2.70;99.90
13354;DHT22;6746;50.892;4.064;2024-01-15T01:55:43;2.70;99.90
13354;DHT22;6746;50.892;4.064;2024-01-15T01:58:27;2.70;99.90
13354;DHT22;6746;50.892;4.064;2024-01-15T02:01:05;2.60;99.90
13354;DHT22;6746;50.892;4.064;2024-01-15T02:03:53;2.70;99.90
13354;DHT22;6746;50.892;4.064;2024-01-15T02:06:32;2.60;99.90
13354;DHT22;6746;50.892;4.064;2024-01-15T02:09:10;2.60;99.90
13354;DHT22;6746;50.892;4.064;2024-01-15T02:11:58;2.50;99.90
13354;DHT22;6746;50.892;4.064;2024-01-15T02:14:36;2.50;99.90
13354;DHT22;6746;50.892;4.064;2024-01-15T02:17:14;2.50;99.90
13354;DHT22;6746;50.892;4.064;2024-01-15T02:19:58;2.40;99.90
13354;DHT22;6746;50.892;4.064;2024-01-15T02:22:36;2.40;99.90
13354;DHT22;6746;50.892;4.064;2024-01-15T02:25:14;2.40;99.90
13354;DHT22;6746;50.892;4.064;2024-01-15T02:27:52;2.30;99.90
13354;DHT22;6746;50.892;4.064;2024-01-15T02:30:41;2.30;99.90
13354;DHT22;6746;50.892;4.064;2024-01-15T02:33:18;2.30;99.90
13354;DHT22;6746;50.892;4.064;2024-01-15T02:35:57;2.30;99.90
13354;DHT22;6746;50.892;4.064;2024-01-15T02:38:35;2.30;99.90
13354;DHT22;6746;50.892;4.064;2024-01-15T02:41:13;2.30;99.90
13354;DHT22;6746;50.892;4.064;2024-01-15T02:43:59;2.40;99.90
13354;DHT22;6746;50.892;4.064;2024-01-15T02:46:37;2.40;99.90
13354;DHT22;6746;50.892;4.064;2024-01-15T02:49:18;2.40;99.90
13354;DHT22;6746;50.892;4.064;2024-01-15T02:51:57;2.40;99.90
13354;DHT22;6746;50.892;4.064;2024-01-15T02:54:40;2.50;99.90
13354;DHT22;6746;50.892;4.064;2024-01-15T02:57:18;2.50;99.90
13354;DHT22;6746;50.892;4.064;2024-01-15T02:59:56;2.50;99.90
13354;DHT22;6746;50.892;4.064;2024-01-15T03:02:38;2.40;99.90
13354;DHT22;6746;50.892;4.064;2024-01-15T03:05:24;2.40;99.90
13354;DHT22;6746;50.892;4.064;2024-01-15T03:08:02;2.40;99.90
13354;DHT22;6746;50.892;4.064;2024-01-15T03:10:50;2.40;99.90
13354;DHT22;6746;50.892;4.064;2024-01-15T03:13:29;2.40;99.90
13354;DHT22;6746;50.892;4.064;2024-01-15T03:16:07;2.40;99.90
13354;DHT22;6746;50.892;4.064;2024-01-15T03:18:55;2.40;99.90
13354;DHT22;6746;50.892;4.064;2024-01-15T03:21:43;2.40;99.90
13354;DHT22;6746;50.892;4.064;2024-01-15T03:24:21;2.30;99.90
13354;DHT22;6746;50.892;4.064;2024-01-15T03:27:00;2.40;99.90
13354;DHT22;6746;50.892;4.064;2024-01-15T03:29:40;2.40;99.90
13354;DHT22;6746;50.892;4.064;2024-01-15T03:32:18;2.40;99.90
13354;DHT22;6746;50.892;4.064;2024-01-15T03:35:02;2.40;99.90
13354;DHT22;6746;50.892;4.064;2024-01-15T03:37:40;2.40;99.90
13354;DHT22;6746;50.892;4.064;2024-01-15T03:40:21;2.40;99.90
13354;DHT22;6746;50.892;4.064;2024-01-15T03:42:59;2.50;99.90
13354;DHT22;6746;50.892;4.064;2024-01-15T03:45:47;2.50;99.90
13354;DHT22;6746;50.892;4.064;2024-01-15T03:48:35;2.50;99.90
13354;DHT22;6746;50.892;4.064;2024-01-15T03:51:15;2.50;99.90
13354;DHT22;6746;50.892;4.064;2024-01-15T03:53:52;2.50;99.90
13354;DHT22;6746;50.892;4.064;2024-01-15T03:56:32;2.50;99.90
13354;DHT22;6746;50.892;4.064;2024-01-15T03:59:10;2.50;99.90
13354;DHT22;6746;50.892;4.064;2024-01-15T04:01:52;2.50;99.90
13354;DHT22;6746;50.892;4.064;2024-01-15T04:04:30;2.50;99.90
13354;DHT22;6746;50.892;4.064;2024-01-15T04:07:16;2.50;99.90
13354;DHT22;6746;50.892;4.064;2024-01-15T04:09:54;2.50;99.90
13354;DHT22;6746;50.892;4.064;2024-01-15T04:12:35;2.50;99.90
13354;DHT22;6746;50.892;4.064;2024-01-15T04:15:14;2.60;99.90
13354;DHT22;6746;50.892;4.064;2024-01-15T04:18:02;2.60;99.90
13354;DHT22;6746;50.892;4.064;2024-01-15T04:20:45;2.70;99.90
13354;DHT22;6746;50.892;4.064;2024-01-15T04:23:23;2.70;99.90
13354;DHT22;6746;50.892;4.064;2024-01-15T04:26:07;2.80;99.90
13354;DHT22;6746;50.892;4.064;2024-01-15T04:28:45;2.80;99.90
13354;DHT22;6746;50.892;4.064;2024-01-15T04:31:32;2.80;99.90
13354;DHT22;6746;50.892;4.064;2024-01-15T04:34:20;2.80;99.90
13354;DHT22;6746;50.892;4.064;2024-01-15T04:37:09;2.80;99.90
13354;DHT22;6746;50.892;4.064;2024-01-15T04:39:57;2.80;99.90
13354;DHT22;6746;50.892;4.064;2024-01-15T04:42:45;2.80;99.90
13354;DHT22;6746;50.892;4.064;2024-01-15T04:45:31;2.70;99.90
13354;DHT22;6746;50.892;4.064;2024-01-15T04:48:10;2.70;99.90
13354;DHT22;6746;50.892;4.064;2024-01-15T04:50:58;2.70;99.90
13354;DHT22;6746;50.892;4.064;2024-01-15T04:53:36;2.60;99.90
13354;DHT22;6746;50.892;4.064;2024-01-15T04:56:14;2.60;99.90
13354;DHT22;6746;50.892;4.064;2024-01-15T04:58:52;2.60;99.90
13354;DHT22;6746;50.892;4.064;2024-01-15T05:01:34;2.50;99.90
13354;DHT22;6746;50.892;4.064;2024-01-15T05:04:20;2.40;99.90
13354;DHT22;6746;50.892;4.064;2024-01-15T05:06:59;2.40;99.90
13354;DHT22;6746;50.892;4.064;2024-01-15T05:09:47;2.30;99.90
13354;DHT22;6746;50.892;4.064;2024-01-15T05:12:28;2.40;99.90
13354;DHT22;6746;50.892;4.064;2024-01-15T05:15:06;2.30;99.90
13354;DHT22;6746;50.892;4.064;2024-01-15T05:17:49;2.30;99.90
13354;DHT22;6746;50.892;4.064;2024-01-15T05:20:27;2.30;99.90
13354;DHT22;6746;50.892;4.064;2024-01-15T05:23:11;2.30;99.90
13354;DHT22;6746;50.892;4.064;2024-01-15T05:25:49;2.30;99.90
13354;DHT22;6746;50.892;4.064;2024-01-15T05:28:30;2.30;99.90
13354;DHT22;6746;50.892;4.064;2024-01-15T05:31:08;2.40;99.90
13354;DHT22;6746;50.892;4.064;2024-01-15T05:33:49;2.40;99.90
13354;DHT22;6746;50.892;4.064;2024-01-15T05:36:27;2.40;99.90
13354;DHT22;6746;50.892;4.064;2024-01-15T05:39:10;2.30;99.90
13354;DHT22;6746;50.892;4.064;2024-01-15T05:41:48;2.30;99.90
13354;DHT22;6746;50.892;4.064;2024-01-15T05:44:31;2.20;99.90
13354;DHT22;6746;50.892;4.064;2024-01-15T05:47:10;2.10;99.90
13354;DHT22;6746;50.892;4.064;2024-01-15T05:49:57;2.10;99.90
13354;DHT22;6746;50.892;4.064;2024-01-15T05:52:45;2.00;99.90
13354;DHT22;6746;50.892;4.064;2024-01-15T05:55:24;2.00;99.90
13354;DHT22;6746;50.892;4.064;2024-01-15T05:58:02;1.90;99.90
13354;DHT22;6746;50.892;4.064;2024-01-15T06:00:40;1.90;99.90
13354;DHT22;6746;50.892;4.064;2024-01-15T06:03:19;1.90;99.90
13354;DHT22;6746;50.892;4.064;2024-01-15T06:06:00;1.80;99.90
13354;DHT22;6746;50.892;4.064;2024-01-15T06:08:39;1.90;99.90
13354;DHT22;6746;50.892;4.064;2024-01-15T06:11:21;1.80;99.90
13354;DHT22;6746;50.892;4.064;2024-01-15T06:13:59;1.80;99.90
13354;DHT22;6746;50.892;4.064;2024-01-15T06:16:37;1.70;99.90
13354;DHT22;6746;50.892;4.064;2024-01-15T06:19:16;1.70;99.90
13354;DHT22;6746;50.892;4.064;2024-01-15T06:21:57;1.70;99.90
13354;DHT22;6746;50.892;4.064;2024-01-15T06:24:35;1.60;99.90
13354;DHT22;6746;50.892;4.064;2024-01-15T06:27:18;1.60;99.90
13354;DHT22;6746;50.892;4.064;2024-01-15T06:29:59;1.50;99.90
13354;DHT22;6746;50.892;4.064;2024-01-15T06:32:37;1.50;99.90
13354;DHT22;6746;50.892;4.064;2024-01-15T06:35:15;1.50;99.90
13354;DHT22;6746;50.892;4.064;2024-01-15T06:38:00;1.50;99.90
13354;DHT22;6746;50.892;4.064;2024-01-15T06:40:40;1.50;99.90
13354;DHT22;6746;50.892;4.064;2024-01-15T06:43:26;1.50;99.90
13354;DHT22;6746;50.892;4.064;2024-01-15T06:46:06;1.40;99.90
13354;DHT22;6746;50.892;4.064;2024-01-15T06:48:53;1.40;99.90
13354;DHT22;6746;50.892;4.064;2024-01-15T06:51:31;1.40;99.90
13354;DHT22;6746;50.892;4.064;2024-01-15T06:54:19;1.40;99.90
13354;DHT22;6746;50.892;4.064;2024-01-15T06:57:07;1.40;99.90
13354;DHT22;6746;50.892;4.064;2024-01-15T06:59:55;1.40;99.90
13354;DHT22;6746;50.892;4.064;2024-01-15T07:02:43;1.40;99.90
13354;DHT22;6746;50.892;4.064;2024-01-15T07:05:32;1.40;99.90
13354;DHT22;6746;50.892;4.064;2024-01-15T07:08:20;1.30;99.90
13354;DHT22;6746;50.892;4.064;2024-01-15T07:11:08;1.40;99.90
13354;DHT22;6746;50.892;4.064;2024-01-15T07:13:47;1.30;99.90
13354;DHT22;6746;50.892;4.064;2024-01-15T07:16:25;1.30;99.90
13354;DHT22;6746;50.892;4.064;2024-01-15T07:19:09;1.30;99.90
13354;DHT22;6746;50.892;4.064;2024-01-15T07:21:47;1.30;99.90
13354;DHT22;6746;50.892;4.064;2024-01-15T07:24:34;1.40;99.90
13354;DHT22;6746;50.892;4.064;2024-01-15T07:27:22;1.40;99.90
13354;DHT22;6746;50.892;4.064;2024-01-15T07:30:08;1.40;99.90
13354;DHT22;6746;50.892;4.064;2024-01-15T07:32:47;1.50;99.90
13354;DHT22;6746;50.892;4.064;2024-01-15T07:35:36;1.50;99.90
13354;DHT22;6746;50.892;4.064;2024-01-15T07:38:24;1.50;99.90
13354;DHT22;6746;50.892;4.064;2024-01-15T07:41:02;1.40;99.90
13354;DHT22;6746;50.892;4.064;2024-01-15T07:43:40;1.50;99.90
13354;DHT22;6746;50.892;4.064;2024-01-15T07:46:16;1.40;99.90
13354;DHT22;6746;50.892;4.064;2024-01-15T07:48:45;1.50;99.90
13354;DHT22;6746;50.892;4.064;2024-01-15T07:51:14;1.40;99.90
13354;DHT22;6746;50.892;4.064;2024-01-15T07:53:43;1.40;99.90
13354;DHT22;6746;50.892;4.064;2024-01-15T07:56:20;1.40;99.90
13354;DHT22;6746;50.892;4.064;2024-01-15T07:58:48;1.40;99.90
13354;DHT22;6746;50.892;4.064;2024-01-15T08:01:27;1.50;99.90
13354;DHT22;6746;50.892;4.064;2024-01-15T08:04:05;1.40;99.90
13354;DHT22;6746;50.892;4.064;2024-01-15T08:06:43;1.40;99.90
13354;DHT22;6746;50.892;4.064;2024-01-15T08:09:22;1.40;99.90
13354;DHT22;6746;50.892;4.064;2024-01-15T08:12:03;1.40;99.90
13354;DHT22;6746;50.892;4.064;2024-01-15T08:14:32;1.40;99.90
13354;DHT22;6746;50.892;4.064;2024-01-15T08:17:08;1.40;99.90
13354;DHT22;6746;50.892;4.064;2024-01-15T08:19:37;1.40;99.90
13354;DHT22;6746;50.892;4.064;2024-01-15T08:22:15;1.50;99.90
13354;DHT22;6746;50.892;4.064;2024-01-15T08:24:49;1.50;99.90
13354;DHT22;6746;50.892;4.064;2024-01-15T08:27:17;1.50;99.90
13354;DHT22;6746;50.892;4.064;2024-01-15T08:29:56;1.50;99.90
13354;DHT22;6746;50.892;4.064;2024-01-15T08:32:44;1.50;99.90
13354;DHT22;6746;50.892;4.064;2024-01-15T08:35:22;1.70;99.90
13354;DHT22;6746;50.892;4.064;2024-01-15T08:38:00;1.60;99.90
13354;DHT22;6746;50.892;4.064;2024-01-15T08:40:38;1.70;99.90
13354;DHT22;6746;50.892;4.064;2024-01-15T08:43:10;1.70;99.90
13354;DHT22;6746;50.892;4.064;2024-01-15T08:45:39;1.70;99.90
13354;DHT22;6746;50.892;4.064;2024-01-15T08:48:08;1.70;99.90
13354;DHT22;6746;50.892;4.064;2024-01-15T08:50:37;1.80;99.90
13354;DHT22;6746;50.892;4.064;2024-01-15T08:53:11;1.80;99.90
13354;DHT22;6746;50.892;4.064;2024-01-15T08:55:40;1.90;99.90
13354;DHT22;6746;50.892;4.064;2024-01-15T08:58:18;2.00;99.90
13354;DHT22;6746;50.892;4.064;2024-01-15T09:00:56;2.00;99.90
13354;DHT22;6746;50.892;4.064;2024-01-15T09:03:35;2.10;99.90
13354;DHT22;6746;50.892;4.064;2024-01-15T09:06:13;2.20;99.90
13354;DHT22;6746;50.892;4.064;2024-01-15T09:08:51;2.20;99.90
13354;DHT22;6746;50.892;4.064;2024-01-15T09:11:29;2.30;99.90
13354;DHT22;6746;50.892;4.064;2024-01-15T09:14:17;2.30;99.90
13354;DHT22;6746;50.892;4.064;2024-01-15T09:16:56;2.40;99.90
13354;DHT22;6746;50.892;4.064;2024-01-15T09:19:34;2.50;99.90
13354;DHT22;6746;50.892;4.064;2024-01-15T09:22:12;2.60;99.90
13354;DHT22;6746;50.892;4.064;2024-01-15T09:24:51;2.70;99.90
13354;DHT22;6746;50.892;4.064;2024-01-15T09:27:29;2.80;99.90
13354;DHT22;6746;50.892;4.064;2024-01-15T09:29:57;2.90;99.90
13354;DHT22;6746;50.892;4.064;2024-01-15T09:32:26;3.00;99.90
13354;DHT22;6746;50.892;4.064;2024-01-15T09:35:14;3.00;99.90
13354;DHT22;6746;50.892;4.064;2024-01-15T09:37:52;3.00;99.90
13354;DHT22;6746;50.892;4.064;2024-01-15T09:40:31;3.10;99.90
13354;DHT22;6746;50.892;4.064;2024-01-15T09:43:09;3.10;99.90
13354;DHT22;6746;50.892;4.064;2024-01-15T09:45:38;3.10;99.90
13354;DHT22;6746;50.892;4.064;2024-01-15T09:48:07;3.10;99.90
13354;DHT22;6746;50.892;4.064;2024-01-15T09:50:45;3.20;99.90
13354;DHT22;6746;50.892;4.064;2024-01-15T09:53:19;3.20;99.90
13354;DHT22;6746;50.892;4.064;2024-01-15T09:55:49;3.20;99.90
13354;DHT22;6746;50.892;4.064;2024-01-15T09:58:36;3.20;99.90
13354;DHT22;6746;50.892;4.064;2024-01-15T10:01:14;3.20;99.90
13354;DHT22;6746;50.892;4.064;2024-01-15T10:03:52;3.30;99.90
13354;DHT22;6746;50.892;4.064;2024-01-15T10:06:24;3.40;99.90
13354;DHT22;6746;50.892;4.064;2024-01-15T10:08:53;3.50;99.90
13354;DHT22;6746;50.892;4.064;2024-01-15T10:11:30;3.50;99.90
13354;DHT22;6746;50.892;4.064;2024-01-15T10:13:58;3.50;99.90
13354;DHT22;6746;50.892;4.064;2024-01-15T10:16:37;3.60;99.90
13354;DHT22;6746;50.892;4.064;2024-01-15T10:19:15;3.60;99.90
13354;DHT22;6746;50.892;4.064;2024-01-15T10:21:51;3.70;99.90
13354;DHT22;6746;50.892;4.064;2024-01-15T10:24:20;3.80;99.90
13354;DHT22;6746;50.892;4.064;2024-01-15T10:27:04;3.80;99.90
13354;DHT22;6746;50.892;4.064;2024-01-15T10:29:24;3.70;99.90
13354;DHT22;6746;50.892;4.064;2024-01-15T10:31:59;3.70;99.90
13354;DHT22;6746;50.892;4.064;2024-01-15T10:34:30;3.70;99.90
13354;DHT22;6746;50.892;4.064;2024-01-15T10:37:09;3.70;99.90
13354;DHT22;6746;50.892;4.064;2024-01-15T10:39:47;3.80;99.90
13354;DHT22;6746;50.892;4.064;2024-01-15T10:42:25;3.90;99.90
13354;DHT22;6746;50.892;4.064;2024-01-15T10:45:03;4.00;99.90
13354;DHT22;6746;50.892;4.064;2024-01-15T10:47:51;4.10;99.90
13354;DHT22;6746;50.892;4.064;2024-01-15T10:50:23;4.20;99.90
13354;DHT22;6746;50.892;4.064;2024-01-15T10:52:52;4.30;99.90
13354;DHT22;6746;50.892;4.064;2024-01-15T10:55:23;4.30;99.90
13354;DHT22;6746;50.892;4.064;2024-01-15T10:57:53;4.40;99.90
13354;DHT22;6746;50.892;4.064;2024-01-15T11:00:22;4.40;99.90
13354;DHT22;6746;50.892;4.064;2024-01-15T11:02:51;4.40;99.90
13354;DHT22;6746;50.892;4.064;2024-01-15T11:05:20;4.50;99.90
13354;DHT22;6746;50.892;4.064;2024-01-15T11:07:49;4.50;99.90
13354;DHT22;6746;50.892;4.064;2024-01-15T11:10:40;4.50;99.90
13354;DHT22;6746;50.892;4.064;2024-01-15T11:13:20;4.50;99.90
13354;DHT22;6746;50.892;4.064;2024-01-15T11:16:02;4.60;99.90
13354;DHT22;6746;50.892;4.064;2024-01-15T11:18:30;4.80;99.90
13354;DHT22;6746;50.892;4.064;2024-01-15T11:23:58;4.80;99.90
13354;DHT22;6746;50.892;4.064;2024-01-15T11:31:58;4.50;99.90
13354;DHT22;6746;50.892;4.064;2024-01-15T11:34:55;4.40;99.90
13354;DHT22;6746;50.892;4.064;2024-01-15T11:37:23;4.40;99.90
13354;DHT22;6746;50.892;4.064;2024-01-15T11:39:52;4.40;99.90
13354;DHT22;6746;50.892;4.064;2024-01-15T11:42:21;4.40;99.90
13354;DHT22;6746;50.892;4.064;2024-01-15T11:44:50;4.40;99.90
13354;DHT22;6746;50.892;4.064;2024-01-15T11:48:28;4.40;99.90
13354;DHT22;6746;50.892;4.064;2024-01-15T11:50:10;4.40;99.90
13354;DHT22;6746;50.892;4.064;2024-01-15T11:53:01;4.40;99.90
13354;DHT22;6746;50.892;4.064;2024-01-15T11:55:38;4.50;99.90
13354;DHT22;6746;50.892;4.064;2024-01-15T11:58:08;4.50;99.90
13354;DHT22;6746;50.892;4.064;2024-01-15T12:00:45;4.50;99.90
13354;DHT22;6746;50.892;4.064;2024-01-15T12:03:13;4.50;99.90
13354;DHT22;6746;50.892;4.064;2024-01-15T12:05:54;4.60;99.90
13354;DHT22;6746;50.892;4.064;2024-01-15T12:08:32;4.60;99.90
13354;DHT22;6746;50.892;4.064;2024-01-15T12:11:10;4.80;99.90
13354;DHT22;6746;50.892;4.064;2024-01-15T12:13:44;5.00;99.90
13354;DHT22;6746;50.892;4.064;2024-01-15T12:16:22;5.20;99.90
13354;DHT22;6746;50.892;4.064;2024-01-15T12:19:00;5.20;99.90
13354;DHT22;6746;50.892;4.064;2024-01-15T12:21:39;5.20;99.90
13354;DHT22;6746;50.892;4.064;2024-01-15T12:24:09;5.20;99.90
13354;DHT22;6746;50.892;4.064;2024-01-15T12:26:48;5.10;99.90
13354;DHT22;6746;50.892;4.064;2024-01-15T12:29:26;5.00;99.90
13354;DHT22;6746;50.892;4.064;2024-01-15T12:31:57;5.10;99.90
13354;DHT22;6746;50.892;4.064;2024-01-15T12:34:28;5.30;99.90
13354;DHT22;6746;50.892;4.064;2024-01-15T12:37:06;5.40;99.90
13354;DHT22;6746;50.892;4.064;2024-01-15T12:39:43;5.40;99.90
13354;DHT22;6746;50.892;4.064;2024-01-15T12:42:21;5.40;99.90
13354;DHT22;6746;50.892;4.064;2024-01-15T12:45:03;5.40;99.90
13354;DHT22;6746;50.892;4.064;2024-01-15T12:47:41;5.30;99.90
13354;DHT22;6746;50.892;4.064;2024-01-15T12:50:14;5.20;99.90
13354;DHT22;6746;50.892;4.064;2024-01-15T12:52:43;5.10;99.90
13354;DHT22;6746;50.892;4.064;2024-01-15T12:55:21;5.00;99.90
13354;DHT22;6746;50.892;4.064;2024-01-15T12:57:59;4.80;99.90
13354;DHT22;6746;50.892;4.064;2024-01-15T13:00:36;4.80;99.90
13354;DHT22;6746;50.892;4.064;2024-01-15T13:03:04;5.00;99.90
13354;DHT22;6746;50.892;4.064;2024-01-15T13:05:43;5.10;99.90
13354;DHT22;6746;50.892;4.064;2024-01-15T13:08:14;5.10;99.90
13354;DHT22;6746;50.892;4.064;2024-01-15T13:10:43;5.10;99.90
13354;DHT22;6746;50.892;4.064;2024-01-15T13:13:12;5.10;99.90
13354;DHT22;6746;50.892;4.064;2024-01-15T13:15:41;5.20;99.90
13354;DHT22;6746;50.892;4.064;2024-01-15T13:18:19;5.10;99.90
13354;DHT22;6746;50.892;4.064;2024-01-15T13:20:58;5.10;99.90
13354;DHT22;6746;50.892;4.064;2024-01-15T13:23:31;5.00;99.90
13354;DHT22;6746;50.892;4.064;2024-01-15T13:26:00;5.10;99.90
13354;DHT22;6746;50.892;4.064;2024-01-15T13:28:36;5.20;99.90
13354;DHT22;6746;50.892;4.064;2024-01-15T13:31:05;5.30;99.90
13354;DHT22;6746;50.892;4.064;2024-01-15T13:33:50;5.40;99.90
13354;DHT22;6746;50.892;4.064;2024-01-15T13:36:15;5.50;99.90
13354;DHT22;6746;50.892;4.064;2024-01-15T13:38:43;5.50;99.90
13354;DHT22;6746;50.892;4.064;2024-01-15T13:41:33;5.50;99.90
13354;DHT22;6746;50.892;4.064;2024-01-15T13:44:02;5.30;99.90
13354;DHT22;6746;50.892;4.064;2024-01-15T13:46:31;5.10;99.90
13354;DHT22;6746;50.892;4.064;2024-01-15T13:49:02;4.90;99.90
13354;DHT22;6746;50.892;4.064;2024-01-15T13:51:31;4.60;99.90
13354;DHT22;6746;50.892;4.064;2024-01-15T13:54:10;4.10;99.90
13354;DHT22;6746;50.892;4.064;2024-01-15T13:56:42;3.70;99.90
13354;DHT22;6746;50.892;4.064;2024-01-15T13:59:11;3.50;99.90
13354;DHT22;6746;50.892;4.064;2024-01-15T14:01:50;3.50;99.90
13354;DHT22;6746;50.892;4.064;2024-01-15T14:04:38;3.40;99.90
13354;DHT22;6746;50.892;4.064;2024-01-15T14:07:11;3.40;99.90
13354;DHT22;6746;50.892;4.064;2024-01-15T14:09:42;3.30;99.90
13354;DHT22;6746;50.892;4.064;2024-01-15T14:12:21;3.30;99.90
13354;DHT22;6746;50.892;4.064;2024-01-15T14:14:59;3.40;99.90
13354;DHT22;6746;50.892;4.064;2024-01-15T14:17:47;3.40;99.90
13354;DHT22;6746;50.892;4.064;2024-01-15T14:20:25;3.50;99.90
13354;DHT22;6746;50.892;4.064;2024-01-15T14:23:03;3.70;99.90
13354;DHT22;6746;50.892;4.064;2024-01-15T14:25:41;3.80;99.90
13354;DHT22;6746;50.892;4.064;2024-01-15T14:28:20;3.90;99.90
13354;DHT22;6746;50.892;4.064;2024-01-15T14:30:48;3.90;99.90
13354;DHT22;6746;50.892;4.064;2024-01-15T14:33:17;4.00;99.90
13354;DHT22;6746;50.892;4.064;2024-01-15T14:35:56;4.00;99.90
13354;DHT22;6746;50.892;4.064;2024-01-15T14:38:32;4.10;99.90
13354;DHT22;6746;50.892;4.064;2024-01-15T14:41:01;4.10;99.90
13354;DHT22;6746;50.892;4.064;2024-01-15T14:43:32;3.80;99.90
13354;DHT22;6746;50.892;4.064;2024-01-15T14:46:01;3.30;99.90
13354;DHT22;6746;50.892;4.064;2024-01-15T14:48:40;2.80;99.90
13354;DHT22;6746;50.892;4.064;2024-01-15T14:51:11;2.60;99.90
13354;DHT22;6746;50.892;4.064;2024-01-15T14:53:42;2.40;99.90
13354;DHT22;6746;50.892;4.064;2024-01-15T14:56:11;2.30;99.90
13354;DHT22;6746;50.892;4.064;2024-01-15T14:58:40;2.20;99.90
13354;DHT22;6746;50.892;4.064;2024-01-15T15:01:17;2.10;99.90
13354;DHT22;6746;50.892;4.064;2024-01-15T15:03:45;2.10;99.90
13354;DHT22;6746;50.892;4.064;2024-01-15T15:06:24;2.10;99.90
13354;DHT22;6746;50.892;4.064;2024-01-15T15:08:55;2.10;99.90
13354;DHT22;6746;50.892;4.064;2024-01-15T15:11:24;2.00;99.90
13354;DHT22;6746;50.892;4.064;2024-01-15T15:13:53;2.00;99.90
13354;DHT22;6746;50.892;4.064;2024-01-15T15:16:26;2.00;99.90
13354;DHT22;6746;50.892;4.064;2024-01-15T15:18:55;2.10;99.90
13354;DHT22;6746;50.892;4.064;2024-01-15T15:21:24;2.10;99.90
13354;DHT22;6746;50.892;4.064;2024-01-15T15:24:02;2.30;99.90
13354;DHT22;6746;50.892;4.064;2024-01-15T15:26:33;2.40;99.90
13354;DHT22;6746;50.892;4.064;2024-01-15T15:29:02;2.40;99.90
13354;DHT22;6746;50.892;4.064;2024-01-15T15:31:34;2.40;99.90
13354;DHT22;6746;50.892;4.064;2024-01-15T15:34:03;2.50;99.90
13354;DHT22;6746;50.892;4.064;2024-01-15T15:36:40;2.60;99.90
13354;DHT22;6746;50.892;4.064;2024-01-15T15:39:08;2.60;99.90
13354;DHT22;6746;50.892;4.064;2024-01-15T15:41:40;2.60;99.90
13354;DHT22;6746;50.892;4.064;2024-01-15T15:44:09;2.60;99.90
13354;DHT22;6746;50.892;4.064;2024-01-15T15:46:51;2.50;99.90
13354;DHT22;6746;50.892;4.064;2024-01-15T15:49:20;2.40;99.90
13354;DHT22;6746;50.892;4.064;2024-01-15T15:51:48;2.30;99.90
13354;DHT22;6746;50.892;4.064;2024-01-15T15:54:17;2.30;99.90
13354;DHT22;6746;50.892;4.064;2024-01-15T15:56:51;2.30;99.90
13354;DHT22;6746;50.892;4.064;2024-01-15T15:59:20;2.30;99.90
13354;DHT22;6746;50.892;4.064;2024-01-15T16:01:50;2.30;99.90
13354;DHT22;6746;50.892;4.064;2024-01-15T16:04:18;2.30;99.90
13354;DHT22;6746;50.892;4.064;2024-01-15T16:06:47;2.30;99.90
13354;DHT22;6746;50.892;4.064;2024-01-15T16:09:16;2.30;99.90
13354;DHT22;6746;50.892;4.064;2024-01-15T16:11:50;2.30;99.90
13354;DHT22;6746;50.892;4.064;2024-01-15T16:14:19;2.20;99.90
13354;DHT22;6746;50.892;4.064;2024-01-15T16:16:49;2.10;99.90
13354;DHT22;6746;50.892;4.064;2024-01-15T16:19:17;2.00;99.90
13354;DHT22;6746;50.892;4.064;2024-01-15T16:21:49;2.00;99.90
13354;DHT22;6746;50.892;4.064;2024-01-15T16:24:18;1.90;99.90
13354;DHT22;6746;50.892;4.064;2024-01-15T16:26:57;1.90;99.90
13354;DHT22;6746;50.892;4.064;2024-01-15T16:29:35;1.90;99.90
13354;DHT22;6746;50.892;4.064;2024-01-15T16:32:13;2.00;99.90
13354;DHT22;6746;50.892;4.064;2024-01-15T16:34:52;2.00;99.90
13354;DHT22;6746;50.892;4.064;2024-01-15T16:37:30;2.00;99.90
13354;DHT22;6746;50.892;4.064;2024-01-15T16:40:08;2.10;99.90
13354;DHT22;6746;50.892;4.064;2024-01-15T16:42:53;2.10;99.90
13354;DHT22;6746;50.892;4.064;2024-01-15T16:45:32;2.20;99.90
13354;DHT22;6746;50.892;4.064;2024-01-15T16:48:15;2.20;99.90
13354;DHT22;6746;50.892;4.064;2024-01-15T16:50:53;2.20;99.90
13354;DHT22;6746;50.892;4.064;2024-01-15T16:53:34;2.40;99.90
13354;DHT22;6746;50.892;4.064;2024-01-15T16:56:13;2.40;99.90
13354;DHT22;6746;50.892;4.064;2024-01-15T16:58:56;2.40;99.90
13354;DHT22;6746;50.892;4.064;2024-01-15T17:01:34;2.20;99.90
13354;DHT22;6746;50.892;4.064;2024-01-15T17:04:12;2.10;99.90
13354;DHT22;6746;50.892;4.064;2024-01-15T17:06:50;2.00;99.90
13354;DHT22;6746;50.892;4.064;2024-01-15T17:09:34;1.90;99.90
13354;DHT22;6746;50.892;4.064;2024-01-15T17:12:12;1.70;99.90
13354;DHT22;6746;50.892;4.064;2024-01-15T17:14:59;1.70;99.90
13354;DHT22;6746;50.892;4.064;2024-01-15T17:17:47;1.50;99.90
13354;DHT22;6746;50.892;4.064;2024-01-15T17:20:35;1.50;99.90